Time;durP1;ratioP1;P1;durP2;ratioP2;P2;SDS_P1;SDS_P2;PMS_P1;PMS_P2;Temp;Humidity;BMP_temperature;BMP_pressure;BME280_temperature;BME280_humidity;BME280_pressure;Samples;Min_cycle;Max_cycle;Signal;HPM_P1;HPM_P2
2022/05/19 00:01:58;;;;;;;;;9.33;8.33;;;;;26.89;100.00;101253.59;4975284;28;45495;-75
2022/05/19 00:04:24;;;;;;;;;7.00;7.00;;;;;26.88;100.00;101242.84;4976564;28;45565;-75
2022/05/19 00:06:49;;;;;;;;;7.00;7.00;;;;;26.87;100.00;101238.41;4976494;28;55819;-75
2022/05/19 00:09:15;;;;;;;;;6.00;6.00;;;;;26.87;100.00;101241.97;4975820;28;55804;-75
2022/05/19 00:11:42;;;;;;;;;8.00;6.33;;;;;26.85;100.00;101224.06;4993412;28;45530;-74
2022/05/19 00:14:08;;;;;;;;;6.67;6.67;;;;;26.82;100.00;101221.50;4974709;28;45485;-74
2022/05/19 00:16:33;;;;;;;;;7.67;7.67;;;;;26.77;100.00;101227.13;4976444;28;45525;-74
2022/05/19 00:18:59;;;;;;;;;5.67;5.67;;;;;26.75;100.00;101214.63;4976636;28;46388;-75
2022/05/19 00:21:25;;;;;;;;;6.00;6.00;;;;;26.69;100.00;101210.41;4976580;28;54338;-76
2022/05/19 00:23:50;;;;;;;;;9.00;8.00;;;;;26.65;100.00;101214.22;4976675;28;45412;-76
2022/05/19 00:26:15;;;;;;;;;7.33;5.67;;;;;26.61;100.00;101204.47;4976748;28;45338;-74
2022/05/19 00:28:41;;;;;;;;;6.00;6.00;;;;;26.54;100.00;101203.03;4976689;28;46474;-76
2022/05/19 00:31:06;;;;;;;;;6.33;6.33;;;;;26.51;100.00;101203.19;4976034;28;59698;-75
2022/05/19 00:33:33;;;;;;;;;8.67;6.00;;;;;26.47;100.00;101196.16;4976053;28;53306;-74
2022/05/19 00:36:06;;;;;;;;;6.00;5.00;;;;;26.42;100.00;101198.22;4976556;28;45547;-74
2022/05/19 00:38:31;;;;;;;;;7.67;6.00;;;;;26.35;100.00;101187.66;4976687;28;47432;-75
2022/05/19 00:40:58;;;;;;;;;7.00;7.00;;;;;26.31;100.00;101188.78;4975872;28;60774;-76
2022/05/19 00:43:36;;;;;;;;;6.00;6.00;;;;;26.26;100.00;101187.22;4976575;28;45213;-74
2022/05/19 00:46:06;;;;;;;;;9.00;7.33;;;;;26.23;100.00;101181.97;4976492;28;45567;-75
2022/05/19 00:49:03;;;;;;;;;10.00;9.00;;;;;26.20;100.00;101173.97;4975923;28;47113;-75
2022/05/19 00:51:44;;;;;;;;;10.00;8.00;;;;;26.19;100.00;101170.41;4966698;28;45483;-75
2022/05/19 00:54:17;;;;;;;;;7.00;7.00;;;;;26.18;100.00;101165.94;4976454;28;45202;-76
2022/05/19 00:56:50;;;;;;;;;8.67;7.33;;;;;26.16;100.00;101158.88;4976834;28;45658;-75
2022/05/19 00:59:23;;;;;;;;;8.67;7.00;;;;;26.13;100.00;101159.88;4975838;28;45452;-74
2022/05/19 01:01:49;;;;;;;;;9.00;6.33;;;;;26.10;100.00;101160.03;4975730;28;45575;-74
2022/05/19 01:04:23;;;;;;;;;11.67;9.67;;;;;26.08;100.00;101151.09;4976101;28;45487;-75
2022/05/19 01:06:50;;;;;;;;;11.00;11.00;;;;;26.06;100.00;101147.59;4970355;28;45209;-74
2022/05/19 01:09:15;;;;;;;;;11.00;9.33;;;;;26.05;100.00;101151.28;4974401;28;47617;-75
2022/05/19 01:11:42;;;;;;;;;12.00;8.00;;;;;26.03;100.00;101151.31;4968262;28;46762;-74
2022/05/19 01:14:08;;;;;;;;;10.33;9.00;;;;;26.03;100.00;101145.03;4976131;28;45475;-74
2022/05/19 01:16:34;;;;;;;;;9.67;9.67;;;;;26.01;100.00;101146.94;4975818;28;45523;-75
2022/05/19 01:19:00;;;;;;;;;10.67;9.00;;;;;26.00;100.00;101142.50;4976034;28;47643;-75
2022/05/19 01:21:28;;;;;;;;;7.00;7.00;;;;;26.00;100.00;101148.78;4974687;28;45417;-75
2022/05/19 01:24:11;;;;;;;;;9.67;9.67;;;;;25.99;100.00;101141.59;4991874;28;45352;-74
2022/05/19 01:26:44;;;;;;;;;9.67;9.67;;;;;25.99;100.00;101140.72;4990610;28;45508;-75
2022/05/19 01:29:10;;;;;;;;;10.00;10.00;;;;;25.98;100.00;101142.53;4972505;28;47644;-75
2022/05/19 01:32:01;;;;;;;;;11.67;10.00;;;;;25.96;100.00;101149.00;4994656;28;45415;-75
2022/05/19 01:34:32;;;;;;;;;9.67;9.67;;;;;25.95;100.00;101144.53;4978920;28;45255;-74
2022/05/19 01:36:58;;;;;;;;;10.33;9.00;;;;;25.91;100.00;101146.50;4979482;28;45416;-75
2022/05/19 01:39:26;;;;;;;;;11.67;9.00;;;;;25.91;100.00;101154.63;4979666;28;47321;-75
2022/05/19 01:42:10;;;;;;;;;10.00;9.33;;;;;25.92;100.00;101155.50;4978627;28;45653;-75
2022/05/19 01:44:57;;;;;;;;;12.00;9.33;;;;;25.90;100.00;101142.06;4979806;28;45361;-74
2022/05/19 01:47:34;;;;;;;;;11.67;10.00;;;;;25.90;100.00;101142.06;4996607;28;46752;-75
2022/05/19 01:50:16;;;;;;;;;12.00;10.00;;;;;25.91;100.00;101145.63;4977200;28;47761;-75
2022/05/19 01:52:51;;;;;;;;;12.00;10.33;;;;;25.91;100.00;101129.41;4994547;28;45361;-74
2022/05/19 01:55:21;;;;;;;;;8.33;8.00;;;;;25.91;100.00;101143.78;4979121;28;45488;-75
2022/05/19 01:57:59;;;;;;;;;11.00;10.00;;;;;25.92;100.00;101139.25;4979018;28;45662;-74
2022/05/19 02:00:27;;;;;;;;;12.00;12.00;;;;;25.93;100.00;101136.47;4981902;28;46785;-74
2022/05/19 02:03:02;;;;;;;;;13.33;9.33;;;;;25.96;100.00;101138.16;4977996;28;45375;-74
2022/05/19 02:05:39;;;;;;;;;15.00;12.33;;;;;25.98;100.00;101145.25;4965272;28;45460;-76
2022/05/19 02:08:09;;;;;;;;;11.00;10.00;;;;;25.98;100.00;101130.84;4978322;28;45544;-75
2022/05/19 02:10:37;;;;;;;;;14.33;11.00;;;;;25.99;100.00;101152.41;4993362;28;47251;-75
2022/05/19 02:13:03;;;;;;;;;12.00;10.67;;;;;25.98;100.00;101138.97;4976003;28;46935;-75
2022/05/19 02:15:32;;;;;;;;;12.00;11.00;;;;;25.99;100.00;101148.81;4978418;28;45515;-74
2022/05/19 02:17:58;;;;;;;;;14.67;12.00;;;;;25.97;100.00;101138.09;4966711;28;45696;-75
2022/05/19 02:20:25;;;;;;;;;15.00;11.67;;;;;25.96;100.00;101144.47;4978332;28;47155;-75
2022/05/19 02:22:50;;;;;;;;;14.00;12.00;;;;;25.96;100.00;101144.47;4978672;28;45377;-74
2022/05/19 02:25:30;;;;;;;;;12.00;12.00;;;;;25.96;100.00;101141.75;4976694;28;45437;-75
2022/05/19 02:28:25;;;;;;;;;11.67;11.67;;;;;25.96;100.00;101146.28;4975964;28;45294;-74
2022/05/19 02:30:50;;;;;;;;;12.00;10.33;;;;;25.95;100.00;101137.28;4977044;28;46467;-75
2022/05/19 02:33:17;;;;;;;;;14.00;14.00;;;;;25.94;100.00;101143.66;4977846;28;62254;-75
2022/05/19 02:35:43;;;;;;;;;11.67;11.00;;;;;25.93;100.00;101131.06;4978059;28;45388;-74
2022/05/19 02:38:09;;;;;;;;;13.33;12.00;;;;;25.94;100.00;101140.06;4978590;28;45572;-74
2022/05/19 02:40:35;;;;;;;;;10.67;10.33;;;;;25.93;100.00;101138.31;4978114;28;45480;-75
2022/05/19 02:43:02;;;;;;;;;13.00;11.00;;;;;25.91;100.00;101151.91;4978514;28;45402;-75
2022/05/19 02:45:28;;;;;;;;;13.00;12.00;;;;;25.92;100.00;101147.38;4978143;28;45489;-74
2022/05/19 02:47:53;;;;;;;;;10.67;10.67;;;;;25.89;100.00;101148.41;4978325;28;45531;-74
2022/05/19 02:50:20;;;;;;;;;12.33;12.33;;;;;25.89;100.00;101148.41;4977732;28;45661;-75
2022/05/19 02:52:46;;;;;;;;;11.00;11.00;;;;;25.85;100.00;101142.25;4978005;28;46054;-75
2022/05/19 02:55:13;;;;;;;;;16.33;15.00;;;;;25.84;100.00;101143.22;4977584;28;54279;-75
2022/05/19 02:57:38;;;;;;;;;11.33;10.00;;;;;25.81;100.00;101143.34;4977852;28;45455;-75
2022/05/19 03:00:06;;;;;;;;;12.67;11.00;;;;;25.80;100.00;101147.00;4977014;28;64512;-74
2022/05/19 03:02:32;;;;;;;;;13.00;12.00;;;;;25.77;100.00;101144.44;4976859;28;45344;-74
2022/05/19 03:04:58;;;;;;;;;12.67;12.00;;;;;25.74;100.00;101147.31;4977565;28;58348;-74
2022/05/19 03:07:24;;;;;;;;;13.33;12.00;;;;;25.71;100.00;101146.53;4977671;28;45509;-74
2022/05/19 03:09:50;;;;;;;;;11.00;10.33;;;;;25.69;100.00;101143.03;4977404;28;47587;-74
2022/05/19 03:12:15;;;;;;;;;12.00;12.00;;;;;25.67;100.00;101142.22;4977671;28;45280;-75
2022/05/19 03:14:40;;;;;;;;;13.00;11.00;;;;;25.66;100.00;101145.88;4977242;28;45905;-74
2022/05/19 03:17:07;;;;;;;;;14.00;14.00;;;;;25.64;100.00;101140.53;4978264;28;45284;-74
2022/05/19 03:19:33;;;;;;;;;11.67;11.67;;;;;25.60;100.00;101134.38;4977268;28;46735;-74
2022/05/19 03:21:59;;;;;;;;;10.67;9.33;;;;;25.57;100.00;101141.78;4977401;28;45257;-74
2022/05/19 03:24:24;;;;;;;;;12.00;10.00;;;;;25.55;100.00;101143.66;4977448;28;53191;-74
2022/05/19 03:26:50;;;;;;;;;12.67;10.67;;;;;25.53;100.00;101142.88;4977318;28;45448;-74
2022/05/19 03:29:15;;;;;;;;;15.33;13.00;;;;;25.52;100.00;101141.13;4977044;28;61753;-75
2022/05/19 03:31:40;;;;;;;;;13.33;10.00;;;;;25.52;100.00;101149.22;4977532;28;45385;-74
2022/05/19 03:34:06;;;;;;;;;12.00;11.33;;;;;25.51;100.00;101148.31;4977159;28;45344;-77
2022/05/19 03:36:31;;;;;;;;;11.33;11.33;;;;;25.49;100.00;101146.66;4976725;28;45627;-74
2022/05/19 03:38:57;;;;;;;;;13.33;11.00;;;;;25.49;100.00;101149.38;4977265;28;58559;-74
2022/05/19 03:41:23;;;;;;;;;14.00;12.33;;;;;25.47;100.00;101144.03;4977019;28;45341;-75
2022/05/19 03:43:48;;;;;;;;;14.33;13.00;;;;;25.46;100.00;101142.28;4977206;28;45417;-74
2022/05/19 03:46:14;;;;;;;;;12.00;10.67;;;;;25.46;100.00;101141.38;4976653;28;45543;-74
2022/05/19 03:48:39;;;;;;;;;17.33;12.00;;;;;25.46;100.00;101139.59;4976337;28;49534;-74
2022/05/19 03:51:09;;;;;;;;;12.67;12.00;;;;;25.46;100.00;101144.09;4977428;28;45445;-77
2022/05/19 03:53:34;;;;;;;;;11.00;10.00;;;;;25.45;100.00;101142.34;4976641;28;45908;-77
2022/05/19 03:56:00;;;;;;;;;14.00;11.33;;;;;25.43;100.00;101142.41;4976842;28;55981;-75
2022/05/19 03:58:25;;;;;;;;;12.00;12.00;;;;;25.42;100.00;101139.78;4976889;28;47758;-76
2022/05/19 04:00:51;;;;;;;;;14.33;12.33;;;;;25.42;100.00;101143.38;4976334;28;45572;-77
2022/05/19 04:03:17;;;;;;;;;14.00;11.00;;;;;25.42;100.00;101151.47;4976614;28;45405;-76
2022/05/19 04:05:42;;;;;;;;;13.33;10.67;;;;;25.42;100.00;101147.91;4976965;28;46336;-76
2022/05/19 04:08:07;;;;;;;;;12.33;11.33;;;;;25.41;100.00;101149.72;4976023;28;62240;-77
2022/05/19 04:10:33;;;;;;;;;11.67;11.67;;;;;25.41;100.00;101152.44;4976625;28;45887;-76
2022/05/19 04:12:59;;;;;;;;;12.33;11.00;;;;;25.42;100.00;101146.06;4976417;28;49856;-75
2022/05/19 04:15:25;;;;;;;;;15.33;14.00;;;;;25.41;100.00;101147.03;4976859;28;45552;-76
2022/05/19 04:17:50;;;;;;;;;10.33;10.33;;;;;25.39;100.00;101143.50;4976607;28;47454;-76
2022/05/19 04:20:16;;;;;;;;;17.00;13.00;;;;;25.39;100.00;101143.50;4976482;28;60875;-77
2022/05/19 04:22:42;;;;;;;;;13.00;11.00;;;;;25.37;100.00;101148.09;4977092;28;45271;-76
2022/05/19 04:25:09;;;;;;;;;14.67;10.33;;;;;25.35;100.00;101147.28;4976914;28;45306;-76
2022/05/19 04:27:35;;;;;;;;;12.33;12.00;;;;;25.34;100.00;101142.81;4976226;28;46762;-76
2022/05/19 04:30:00;;;;;;;;;15.33;11.67;;;;;25.33;100.00;101151.88;4976386;28;45274;-76
2022/05/19 04:32:26;;;;;;;;;14.00;13.00;;;;;25.32;100.00;101159.13;4976536;28;45334;-76
2022/05/19 04:34:51;;;;;;;;;11.67;11.33;;;;;25.34;100.00;101153.63;4976759;28;45498;-75
2022/05/19 04:37:17;;;;;;;;;15.00;13.67;;;;;25.34;100.00;101154.50;4975822;28;47467;-75
2022/05/19 04:39:42;;;;;;;;;11.67;11.67;;;;;25.36;100.00;101161.69;4976265;28;60493;-77
2022/05/19 04:42:12;;;;;;;;;12.00;10.67;;;;;25.39;100.00;101165.13;4975468;28;45477;-76
2022/05/19 04:44:38;;;;;;;;;13.00;12.00;;;;;25.41;100.00;101182.16;4977084;28;45394;-76
2022/05/19 04:47:04;;;;;;;;;15.67;12.33;;;;;25.43;100.00;101196.47;4976186;28;46490;-76
2022/05/19 04:49:30;;;;;;;;;14.00;14.00;;;;;25.45;100.00;101188.28;4976310;28;45481;-76
2022/05/19 04:51:55;;;;;;;;;13.67;12.67;;;;;25.48;100.00;101205.28;4976569;28;45380;-76
2022/05/19 04:54:21;;;;;;;;;13.67;11.00;;;;;25.50;100.00;101216.00;4976326;28;45694;-76
2022/05/19 04:56:46;;;;;;;;;11.67;11.67;;;;;25.50;100.00;101205.19;4975781;28;46225;-76
2022/05/19 04:59:14;;;;;;;;;17.00;14.00;;;;;25.48;100.00;101224.19;4975974;28;49945;-75
2022/05/19 05:01:44;;;;;;;;;15.00;14.00;;;;;25.44;100.00;101219.88;4975720;28;45437;-76
2022/05/19 05:04:10;;;;;;;;;12.67;12.67;;;;;25.42;100.00;101224.47;4974941;28;45537;-76
2022/05/19 05:06:36;;;;;;;;;11.67;9.67;;;;;25.42;100.00;101221.78;4979631;28;47446;-76
2022/05/19 05:09:01;;;;;;;;;14.00;11.00;;;;;25.40;100.00;101218.22;4978159;28;59449;-76
2022/05/19 05:11:27;;;;;;;;;14.67;12.67;;;;;25.39;100.00;101221.91;4979119;28;45516;-76
2022/05/19 05:13:52;;;;;;;;;14.67;12.67;;;;;25.37;100.00;101217.53;4979331;28;55190;-75
2022/05/19 05:16:17;;;;;;;;;17.00;13.33;;;;;25.37;100.00;101217.53;4978933;28;62068;-76
2022/05/19 05:18:43;;;;;;;;;11.33;11.33;;;;;25.39;100.00;101219.19;4979027;28;54703;-76
2022/05/19 05:21:11;;;;;;;;;12.00;12.00;;;;;25.41;100.00;101217.31;4980006;28;45316;-76
2022/05/19 05:23:36;;;;;;;;;14.67;11.67;;;;;25.44;100.00;101224.41;4979391;28;45606;-76
2022/05/19 05:26:03;;;;;;;;;13.00;13.00;;;;;25.44;100.00;101244.19;4979449;28;46621;-76
2022/05/19 05:28:29;;;;;;;;;14.00;13.00;;;;;25.46;100.00;101274.78;4978938;28;46693;-76
2022/05/19 05:30:54;;;;;;;;;12.67;11.00;;;;;25.50;100.00;101292.59;4979143;28;45571;-77
2022/05/19 05:33:20;;;;;;;;;15.67;12.33;;;;;25.50;100.00;101276.38;4979621;28;45343;-76
2022/05/19 05:35:46;;;;;;;;;15.33;12.00;;;;;25.52;100.00;101268.22;4979311;28;46572;-75
2022/05/19 05:38:11;;;;;;;;;16.00;13.00;;;;;25.51;100.00;101291.63;4979009;28;45282;-76
2022/05/19 05:40:36;;;;;;;;;16.00;14.00;;;;;25.51;100.00;101280.81;4979629;28;45330;-77
2022/05/19 05:43:10;;;;;;;;;14.67;14.00;;;;;25.50;100.00;101273.66;4977638;28;53639;-76
2022/05/19 05:45:36;;;;;;;;;15.00;15.00;;;;;25.49;100.00;101271.91;4994405;28;46139;-76
2022/05/19 05:48:02;;;;;;;;;17.67;14.00;;;;;25.50;100.00;101273.66;4978920;28;45266;-76
2022/05/19 05:50:28;;;;;;;;;15.00;13.00;;;;;25.53;100.00;101276.25;4979468;28;45424;-76
2022/05/19 05:52:53;;;;;;;;;13.33;13.33;;;;;25.54;100.00;101269.88;4978691;28;45328;-76
2022/05/19 05:55:18;;;;;;;;;20.67;16.00;;;;;25.55;100.00;101268.94;4978954;28;46600;-76
2022/05/19 05:57:44;;;;;;;;;14.00;14.00;;;;;25.57;100.00;101268.88;4979121;28;45235;-75
2022/05/19 06:00:10;;;;;;;;;18.67;15.00;;;;;25.58;100.00;101266.09;4977496;28;56583;-76
2022/05/19 06:02:38;;;;;;;;;13.33;13.33;;;;;25.60;100.00;101268.72;4976545;28;45551;-75
2022/05/19 06:05:03;;;;;;;;;16.33;15.00;;;;;25.58;100.00;101258.00;4972577;28;47617;-75
2022/05/19 06:07:29;;;;;;;;;17.00;15.00;;;;;25.53;100.00;101259.16;4975215;28;45432;-75
2022/05/19 06:09:56;;;;;;;;;18.67;15.33;;;;;25.49;100.00;101266.50;4977477;28;45499;-76
2022/05/19 06:12:25;;;;;;;;;15.33;13.67;;;;;25.45;100.00;101264.88;4972052;28;45452;-76
2022/05/19 06:14:53;;;;;;;;;16.33;13.33;;;;;25.43;100.00;101265.91;4977807;28;47024;-76
2022/05/19 06:17:18;;;;;;;;;13.33;13.33;;;;;25.41;100.00;101268.69;4976916;28;45322;-76
2022/05/19 06:19:44;;;;;;;;;15.00;13.67;;;;;25.40;100.00;101261.50;4978096;28;45355;-77
2022/05/19 06:22:09;;;;;;;;;14.67;14.00;;;;;25.33;100.00;101255.50;4978161;28;45452;-75
2022/05/19 06:24:35;;;;;;;;;15.67;15.33;;;;;25.29;100.00;101270.06;4977113;28;46040;-75
2022/05/19 06:27:00;;;;;;;;;17.00;14.00;;;;;25.22;100.00;101267.72;4974024;28;53657;-75
2022/05/19 06:29:25;;;;;;;;;16.33;15.00;;;;;25.15;100.00;101267.09;4974257;28;55013;-76
2022/05/19 06:31:51;;;;;;;;;12.67;12.67;;;;;25.07;100.00;101269.25;4978435;28;45301;-75
2022/05/19 06:34:16;;;;;;;;;14.00;14.00;;;;;25.02;100.00;101266.69;4977692;28;50031;-75
2022/05/19 06:36:42;;;;;;;;;15.00;14.00;;;;;24.99;100.00;101269.53;4974573;28;45476;-75
2022/05/19 06:39:08;;;;;;;;;20.00;16.67;;;;;24.99;100.00;101271.38;4972163;28;45624;-76
2022/05/19 06:44:17;;;;;;;;;14.67;13.67;;;;;25.02;100.00;101276.63;4976436;28;45713;-77
2022/05/19 06:46:44;;;;;;;;;16.00;16.00;;;;;25.02;100.00;101277.50;4976145;28;45499;-77
2022/05/19 06:49:10;;;;;;;;;20.00;18.00;;;;;25.00;100.00;101283.94;4976069;28;45448;-75
2022/05/19 06:51:36;;;;;;;;;22.33;18.67;;;;;24.94;100.00;101273.38;4975717;28;45428;-74
2022/05/19 06:54:02;;;;;;;;;19.00;19.00;;;;;24.92;100.00;101284.22;4975351;28;45499;-80
2022/05/19 06:56:27;;;;;;;;;16.00;16.00;;;;;24.90;100.00;101280.72;4992975;28;45276;-76
2022/05/19 06:58:53;;;;;;;;;17.33;17.33;;;;;24.88;100.00;101282.63;4972866;28;45736;-79
2022/05/19 07:01:18;;;;;;;;;22.33;18.00;;;;;24.87;100.00;101291.66;4975913;28;45271;-78
2022/05/19 07:03:44;;;;;;;;;21.00;18.33;;;;;24.81;100.00;101290.06;4975510;28;46585;-78
2022/05/19 07:06:09;;;;;;;;;22.67;18.33;;;;;24.72;100.00;101300.41;4975748;28;55889;-79
2022/05/19 07:08:36;;;;;;;;;17.00;17.00;;;;;24.66;100.00;101301.53;4974528;28;56275;-78
2022/05/19 07:11:01;;;;;;;;;18.00;17.00;;;;;24.57;100.00;101296.50;4976126;28;45568;-78
2022/05/19 07:13:27;;;;;;;;;22.67;19.67;;;;;24.51;100.00;101294.03;4974456;28;46373;-73
2022/05/19 07:15:52;;;;;;;;;16.00;16.00;;;;;24.43;100.00;101290.75;4976870;28;45523;-78
2022/05/19 07:18:17;;;;;;;;;15.33;14.00;;;;;24.38;100.00;101301.72;4975721;28;48087;-77
2022/05/19 07:20:48;;;;;;;;;21.33;18.33;;;;;24.34;100.00;101293.75;4975029;28;45460;-77
2022/05/19 07:23:25;;;;;;;;;17.00;16.00;;;;;24.35;100.00;101301.84;4974757;28;46323;-78
2022/05/19 07:25:50;;;;;;;;;18.00;16.00;;;;;24.34;100.00;101288.34;4973085;28;45551;-80
2022/05/19 07:28:18;;;;;;;;;17.00;17.00;;;;;24.34;100.00;101289.22;4973907;28;45504;-75
2022/05/19 07:30:47;;;;;;;;;25.33;22.67;;;;;24.31;100.00;101282.16;4976038;28;45536;-75
2022/05/19 07:33:14;;;;;;;;;18.67;17.67;;;;;24.32;100.00;101291.13;4971018;28;46786;-75
2022/05/19 07:35:41;;;;;;;;;17.67;16.67;;;;;24.31;100.00;101295.66;4975465;28;46563;-74
2022/05/19 07:38:06;;;;;;;;;21.00;18.33;;;;;24.33;100.00;101290.19;4975299;28;45618;-74
2022/05/19 07:40:32;;;;;;;;;18.67;17.67;;;;;24.33;100.00;101292.00;4975573;28;45524;-74
2022/05/19 07:45:41;;;;;;;;;21.00;15.33;;;;;24.40;100.00;101310.66;4975177;28;45532;-75
2022/05/19 07:48:07;;;;;;;;;15.67;15.33;;;;;24.42;100.00;101307.88;4975979;28;45579;-74
2022/05/19 07:50:32;;;;;;;;;17.33;16.67;;;;;24.46;100.00;101312.22;4975583;28;45592;-75
2022/05/19 07:52:58;;;;;;;;;21.67;17.67;;;;;24.45;100.00;101321.25;4975088;28;54942;-75
2022/05/19 07:55:23;;;;;;;;;17.00;14.67;;;;;24.45;100.00;101321.25;4975710;28;64799;-76
2022/05/19 07:57:48;;;;;;;;;19.00;15.67;;;;;24.50;100.00;101335.44;4975463;28;45575;-77
2022/05/19 08:00:15;;;;;;;;;16.00;16.00;;;;;24.58;100.00;101348.66;4974068;28;49108;-75
2022/05/19 08:02:40;;;;;;;;;20.00;15.00;;;;;24.66;100.00;101350.13;4973702;28;47564;-75
2022/05/19 08:05:06;;;;;;;;;20.67;15.33;;;;;24.70;100.00;101356.28;4976126;28;45341;-77
2022/05/19 08:07:31;;;;;;;;;15.00;14.00;;;;;24.71;100.00;101361.59;4975587;28;45596;-76
2022/05/19 08:15:36;;;;;;;;;16.67;14.00;;;;;24.66;100.00;101381.63;4976005;28;45361;-75
2022/05/19 08:18:10;;;;;;;;;12.33;12.33;;;;;24.70;100.00;101391.38;4976174;28;46513;-78
2022/05/19 08:20:39;;;;;;;;;14.33;13.00;;;;;24.73;100.00;101397.56;4975976;28;45542;-76
2022/05/19 08:23:06;;;;;;;;;15.00;15.00;;;;;24.76;100.00;101412.75;4975149;28;46646;-77
2022/05/19 08:25:32;;;;;;;;;13.00;13.00;;;;;24.79;100.00;101407.25;4976107;28;45530;-75
2022/05/19 08:27:58;;;;;;;;;14.33;11.00;;;;;24.87;100.00;101429.41;4975607;28;45551;-76
2022/05/19 08:30:24;;;;;;;;;15.00;13.00;;;;;24.93;100.00;101429.22;4971622;28;45250;-75
2022/05/19 08:32:50;;;;;;;;;10.67;10.67;;;;;25.03;100.00;101427.00;4974347;28;46482;-75
2022/05/19 08:35:16;;;;;;;;;10.67;10.67;;;;;25.07;100.00;101447.59;4976027;28;45865;-76
2022/05/19 08:37:41;;;;;;;;;14.33;11.67;;;;;25.07;100.00;101453.00;4974387;28;45336;-76
2022/05/19 08:40:07;;;;;;;;;10.33;10.00;;;;;25.06;100.00;101451.25;4974706;28;48051;-75
2022/05/19 08:42:37;;;;;;;;;8.67;8.67;;;;;25.10;100.00;101443.91;4974127;28;46535;-76
2022/05/19 08:45:05;;;;;;;;;10.33;9.00;;;;;25.10;100.00;101449.31;4990550;28;45606;-75
2022/05/19 08:47:34;;;;;;;;;10.67;7.67;;;;;25.20;100.00;101448.00;4990305;28;45428;-76
2022/05/19 08:50:04;;;;;;;;;9.00;8.00;;;;;25.24;100.00;101445.09;4975463;28;45606;-76
2022/05/19 08:52:42;;;;;;;;;6.33;5.00;;;;;25.34;100.00;101453.72;4975056;28;46732;-79
2022/05/19 08:55:11;;;;;;;;;7.00;7.00;;;;;25.41;100.00;101455.25;4988207;28;45421;-77
2022/05/19 08:57:42;;;;;;;;;8.00;7.00;;;;;25.47;100.00;101454.13;4990465;28;45443;-76
2022/05/19 09:00:20;;;;;;;;;6.00;6.00;;;;;25.54;100.00;101464.59;5064326;22;45464;-77
2022/05/19 09:02:57;;;;;;;;;7.33;6.00;;;;;25.51;100.00;101472.81;4972666;28;46509;-75
2022/05/19 09:05:28;;;;;;;;;6.33;6.33;;;;;25.43;100.00;101480.38;4973567;28;46269;-75
2022/05/19 09:08:00;;;;;;;;;6.33;6.33;;;;;25.40;100.00;101483.19;4974725;28;45544;-75
2022/05/19 09:10:54;;;;;;;;;6.33;6.00;;;;;25.45;100.00;101497.41;4971876;28;45559;-76
2022/05/19 09:13:29;;;;;;;;;11.67;8.00;;;;;25.46;100.00;101523.53;4974212;28;46637;-73
2022/05/19 09:15:55;;;;;;;;;12.00;12.00;;;;;25.45;100.00;101539.81;4990866;28;46212;-75
2022/05/19 09:18:27;;;;;;;;;17.33;15.00;;;;;25.38;100.00;101541.88;4974747;28;45500;-75
2022/05/19 09:20:54;;;;;;;;;16.67;14.00;;;;;25.29;100.00;101540.41;4993522;28;45377;-76
2022/05/19 09:23:21;;;;;;;;;16.67;14.67;;;;;25.28;100.00;101554.00;4971777;28;46559;-74
2022/05/19 09:26:11;;;;;;;;;16.33;15.33;;;;;25.29;100.00;101542.22;4975881;28;45473;-73
2022/05/19 09:28:37;;;;;;;;;17.67;15.00;;;;;25.20;100.00;101551.59;4971270;28;45445;-76
2022/05/19 09:31:02;;;;;;;;;17.67;15.67;;;;;25.11;100.00;101545.66;4973354;28;49874;-78
2022/05/19 09:33:37;;;;;;;;;14.67;12.33;;;;;25.04;100.00;101545.84;4974175;28;45544;-77
2022/05/19 09:36:11;;;;;;;;;15.00;13.00;;;;;24.94;100.00;101544.44;4974131;28;45567;-76
2022/05/19 09:38:48;;;;;;;;;12.33;12.33;;;;;24.89;100.00;101545.56;4989567;28;45534;-80
2022/05/19 09:41:31;;;;;;;;;11.67;11.67;;;;;24.91;100.00;101563.44;4973678;28;45617;-77
2022/05/19 09:43:58;;;;;;;;;12.67;9.33;;;;;24.96;100.00;101564.16;4970927;28;45630;-76
2022/05/19 09:46:24;;;;;;;;;9.33;9.33;;;;;25.04;100.00;101562.06;4973787;28;45684;-77
2022/05/19 09:49:03;;;;;;;;;10.00;8.67;;;;;25.15;100.00;101563.53;4971516;28;45532;-76
2022/05/19 09:51:40;;;;;;;;;7.67;7.67;;;;;25.21;100.00;101569.56;4975489;28;45365;-75
2022/05/19 09:54:05;;;;;;;;;12.67;7.33;;;;;25.31;100.00;101567.41;4977394;28;47541;-77
2022/05/19 09:56:39;;;;;;;;;19.00;11.00;;;;;25.45;100.00;101573.13;4977591;28;45547;-75
2022/05/19 09:59:14;;;;;;;;;7.00;6.67;;;;;25.53;100.00;101572.84;4977391;28;45234;-76
2022/05/19 10:01:41;;;;;;;;;5.00;5.00;;;;;25.55;100.00;101576.34;4978180;28;45516;-75
2022/05/19 10:04:13;;;;;;;;;9.67;5.00;;;;;25.59;100.00;101573.47;4975638;28;45741;-76
2022/05/19 10:06:51;;;;;;;;;5.00;4.00;;;;;25.61;100.00;101579.69;4994171;28;45424;-75
2022/05/19 10:09:19;;;;;;;;;5.67;4.67;;;;;25.59;100.00;101565.34;4976405;28;45474;-75
2022/05/19 10:11:48;;;;;;;;;3.00;3.00;;;;;25.60;100.00;101566.25;4977911;28;45456;-75
2022/05/19 10:14:40;;;;;;;;;3.00;2.33;;;;;25.59;100.00;101567.19;4975831;28;46246;-74
2022/05/19 10:17:15;;;;;;;;;4.00;2.33;;;;;25.60;100.00;101583.34;4971821;28;45416;-74
2022/05/19 10:20:14;;;;;;;;;4.00;3.00;;;;;25.66;100.00;101605.69;4999188;28;45623;-77
2022/05/19 10:22:55;;;;;;;;;4.33;2.00;;;;;25.75;100.00;101591.84;4975243;28;45227;-78
2022/05/19 10:25:38;;;;;;;;;6.00;2.33;;;;;25.92;100.00;101600.16;4972907;28;45985;-77
2022/05/19 10:31:30;;;;;;;;;3.67;2.00;;;;;26.54;100.00;101587.66;4977350;28;45602;-77
2022/05/19 10:34:07;;;;;;;;;1.67;1.67;;;;;26.68;100.00;101597.88;4976966;28;45590;-77
2022/05/19 10:36:44;;;;;;;;;2.00;2.00;;;;;26.80;100.00;101606.34;4977105;28;46901;-78
2022/05/19 10:39:28;;;;;;;;;2.00;2.00;;;;;26.83;100.00;101597.19;4974991;28;45542;-76
2022/05/19 10:42:13;;;;;;;;;1.67;1.67;;;;;26.86;100.00;101580.81;4976644;28;45678;-77
2022/05/19 10:44:54;;;;;;;;;3.00;1.00;;;;;26.97;100.00;101594.75;4990404;28;45444;-78
2022/05/19 10:47:19;;;;;;;;;2.00;2.00;;;;;27.09;100.00;101593.34;4973032;28;45527;-78
2022/05/19 10:49:58;;;;;;;;;1.00;1.00;;;;;27.14;100.00;101597.59;4975703;28;45669;-77
2022/05/19 10:52:55;;;;;;;;;1.00;1.00;;;;;27.24;100.00;101602.59;4974934;28;45573;-77
2022/05/19 10:55:57;;;;;;;;;1.00;1.00;;;;;27.24;100.00;101594.47;4972938;28;45571;-77
2022/05/19 10:58:26;;;;;;;;;4.00;2.67;;;;;27.19;100.00;101591.09;4974655;28;46135;-77
2022/05/19 11:00:57;;;;;;;;;2.00;2.00;;;;;27.15;100.00;101593.06;4977055;28;45424;-77
2022/05/19 11:03:56;;;;;;;;;2.00;2.00;;;;;27.19;100.00;101588.38;4975109;28;45408;-76
2022/05/19 11:06:28;;;;;;;;;4.00;2.00;;;;;27.21;100.00;101600.91;4975886;28;45329;-77
2022/05/19 11:09:08;;;;;;;;;2.00;2.00;;;;;27.19;100.00;101597.41;4973326;28;46335;-77
2022/05/19 11:12:11;;;;;;;;;3.00;2.00;;;;;27.24;100.00;101594.47;4974027;28;46013;-78
2022/05/19 11:15:02;;;;;;;;;2.00;2.00;;;;;27.37;100.00;101590.22;4975733;28;45386;-75
2022/05/19 11:17:42;;;;;;;;;2.00;2.00;;;;;27.51;100.00;101598.59;4977039;28;45464;-77
2022/05/19 11:20:18;;;;;;;;;3.00;1.00;;;;;27.69;100.00;101600.41;4987453;28;46496;-81
2022/05/19 11:22:46;;;;;;;;;3.00;1.67;;;;;27.85;100.00;101589.72;4977754;28;45942;-79
2022/05/19 11:28:32;;;;;;;;;2.00;2.00;;;;;27.98;100.00;101591.84;4976971;28;46856;-80
2022/05/19 11:31:02;;;;;;;;;2.00;2.00;;;;;28.00;100.00;101587.22;4972893;28;47535;-79
2022/05/19 11:33:33;;;;;;;;;3.33;3.00;;;;;28.01;100.00;101570.84;4982258;28;45489;-78
2022/05/19 11:36:02;;;;;;;;;3.00;2.00;;;;;27.97;100.00;101568.38;4991107;28;45519;-81